createdAt,value
2022-12-06T00:01:23.967Z,30.54
2022-12-06T00:03:55.742Z,30.63
2022-12-06T00:06:24.352Z,30.76
2022-12-06T00:08:51.542Z,30.86
2022-12-06T00:11:26.601Z,30.87
2022-12-06T00:14:01.225Z,30.66
2022-12-06T00:16:28.042Z,30.77
2022-12-06T00:18:55.605Z,30.66
2022-12-06T00:21:25.645Z,30.74
2022-12-06T00:24:03.764Z,30.80
2022-12-06T00:26:31.103Z,31.05
2022-12-06T00:28:59.615Z,30.93
2022-12-06T00:31:29.232Z,31.32
2022-12-06T00:33:56.431Z,31.06
2022-12-06T00:36:25.589Z,31.09
2022-12-06T00:38:52.969Z,31.24
2022-12-06T00:41:22.316Z,31.13
2022-12-06T00:43:50.093Z,31.18
2022-12-06T00:46:22.312Z,31.61
2022-12-06T00:48:49.711Z,31.43
2022-12-06T00:51:17.587Z,31.50
2022-12-06T00:53:44.988Z,31.53
2022-12-06T00:56:12.029Z,31.77
2022-12-06T00:58:38.795Z,31.85
2022-12-06T01:01:16.688Z,31.83
2022-12-06T01:03:44.847Z,31.73
2022-12-06T01:06:15.184Z,31.98
2022-12-06T01:08:43.076Z,31.67
2022-12-06T01:11:10.642Z,31.59
2022-12-06T01:13:38.733Z,31.83
2022-12-06T01:16:10.840Z,31.82
2022-12-06T01:18:38.044Z,32.46
2022-12-06T01:21:06.038Z,31.92
2022-12-06T01:23:32.767Z,32.58
2022-12-06T01:25:59.762Z,32.56
2022-12-06T01:28:26.573Z,32.32
2022-12-06T01:30:53.182Z,32.74
2022-12-06T01:33:19.839Z,32.18
2022-12-06T01:35:46.444Z,32.25
2022-12-06T01:38:13.246Z,32.63
2022-12-06T01:40:41.215Z,32.53
2022-12-06T01:43:30.840Z,32.21
2022-12-06T01:46:00.185Z,32.64
2022-12-06T01:48:27.135Z,32.88
2022-12-06T01:50:56.348Z,32.99
2022-12-06T01:53:25.861Z,32.81
2022-12-06T01:55:53.646Z,33.01
2022-12-06T01:58:25.505Z,32.60
2022-12-06T02:00:52.162Z,32.44
2022-12-06T02:03:24.374Z,33.08
2022-12-06T02:05:51.732Z,33.13
2022-12-06T02:08:18.961Z,32.87
2022-12-06T02:10:46.316Z,32.82
2022-12-06T02:13:13.546Z,33.24
2022-12-06T02:16:01.645Z,32.65
2022-12-06T02:18:39.185Z,32.86
2022-12-06T02:21:36.723Z,32.74
2022-12-06T02:24:06.092Z,33.33
2022-12-06T02:26:37.867Z,32.72
2022-12-06T02:29:19.492Z,33.19
2022-12-06T02:32:04.286Z,32.90
2022-12-06T02:34:43.030Z,33.13
2022-12-06T02:37:14.028Z,33.27
2022-12-06T02:39:55.685Z,33.30
2022-12-06T02:42:25.861Z,33.17
2022-12-06T02:45:00.208Z,33.15
2022-12-06T02:47:32.443Z,33.38
2022-12-06T02:50:00.068Z,33.65
2022-12-06T02:52:28.174Z,33.47
2022-12-06T02:54:57.336Z,33.21
2022-12-06T02:57:46.969Z,33.63
2022-12-06T03:00:29.340Z,33.67
2022-12-06T03:03:14.108Z,33.63
2022-12-06T03:06:01.859Z,33.25
2022-12-06T03:08:48.701Z,33.81
2022-12-06T03:11:18.658Z,33.65
2022-12-06T03:13:56.253Z,33.41
2022-12-06T03:16:28.410Z,33.53
2022-12-06T03:19:00.958Z,33.97
2022-12-06T03:22:04.653Z,33.98
2022-12-06T03:24:33.872Z,33.79
2022-12-06T03:27:03.997Z,33.80
2022-12-06T03:29:31.740Z,34.10
2022-12-06T03:32:03.596Z,33.61
2022-12-06T03:34:33.014Z,34.01
2022-12-06T03:36:59.897Z,34.08
2022-12-06T03:39:37.146Z,33.84
2022-12-06T03:42:04.655Z,34.11
2022-12-06T03:44:31.345Z,33.72
2022-12-06T03:47:06.589Z,34.05
2022-12-06T03:49:36.649Z,33.74
2022-12-06T03:52:05.676Z,33.73
2022-12-06T03:54:32.636Z,34.34
2022-12-06T03:56:59.185Z,33.91
2022-12-06T03:59:26.224Z,33.90
2022-12-06T04:01:52.811Z,34.45
2022-12-06T04:04:19.573Z,33.90
2022-12-06T04:06:46.180Z,34.42
2022-12-06T04:09:31.097Z,34.00
2022-12-06T04:11:57.720Z,34.05
2022-12-06T04:14:32.352Z,34.18
2022-12-06T04:17:17.737Z,33.96
2022-12-06T04:19:48.088Z,34.01
2022-12-06T04:22:36.510Z,34.00
2022-12-06T04:25:03.120Z,34.56
2022-12-06T04:27:48.324Z,34.05
2022-12-06T04:30:33.645Z,34.06
2022-12-06T04:33:19.817Z,34.22
2022-12-06T04:36:05.074Z,34.11
2022-12-06T04:38:43.673Z,34.64
2022-12-06T04:41:11.461Z,34.14
2022-12-06T04:43:44.422Z,34.19
2022-12-06T04:46:14.330Z,34.14
2022-12-06T04:48:41.423Z,34.33
2022-12-06T04:51:12.885Z,34.33
2022-12-06T04:53:39.645Z,34.79
2022-12-06T04:56:06.274Z,34.27
2022-12-06T04:58:32.857Z,34.55
2022-12-06T05:00:59.610Z,34.63
2022-12-06T05:03:26.282Z,34.72
2022-12-06T05:05:53.500Z,34.74
2022-12-06T05:08:20.408Z,34.58
2022-12-06T05:10:48.322Z,34.52
2022-12-06T05:13:19.826Z,34.70
2022-12-06T05:15:51.677Z,34.77
2022-12-06T05:18:18.618Z,34.51
2022-12-06T05:20:45.372Z,34.78
2022-12-06T05:23:13.412Z,34.65
2022-12-06T05:25:40.583Z,34.80
2022-12-06T05:28:07.243Z,34.76
2022-12-06T05:30:34.028Z,34.35
2022-12-06T05:33:00.651Z,35.05
2022-12-06T05:35:27.186Z,34.81
2022-12-06T05:37:54.262Z,34.88
2022-12-06T05:40:21.162Z,34.66
2022-12-06T05:42:49.467Z,34.99
2022-12-06T05:45:16.723Z,35.01
2022-12-06T05:47:43.746Z,34.76
2022-12-06T05:50:11.065Z,34.92
2022-12-06T05:52:37.716Z,34.67
2022-12-06T05:55:04.903Z,34.69
2022-12-06T05:57:31.475Z,34.74
2022-12-06T05:59:58.410Z,35.14
2022-12-06T06:02:26.453Z,34.78
2022-12-06T06:04:53.245Z,34.94
2022-12-06T06:07:19.908Z,34.92
2022-12-06T06:09:48.178Z,35.02
2022-12-06T06:12:14.870Z,34.69
2022-12-06T06:14:41.456Z,34.98
2022-12-06T06:17:08.130Z,34.89
2022-12-06T06:19:34.732Z,34.89
2022-12-06T06:22:02.543Z,35.09
2022-12-06T06:24:35.020Z,35.23
2022-12-06T06:27:02.791Z,35.24
2022-12-06T06:29:30.113Z,34.70
2022-12-06T06:31:56.830Z,35.48
2022-12-06T06:34:23.679Z,37.44
2022-12-06T06:36:51.200Z,38.10
2022-12-06T06:39:18.367Z,38.28
2022-12-06T06:41:46.058Z,38.29
2022-12-06T06:44:12.725Z,38.31
2022-12-06T06:46:39.356Z,38.51
2022-12-06T06:49:07.518Z,38.84
2022-12-06T06:51:34.232Z,39.09
2022-12-06T06:54:00.809Z,38.41
2022-12-06T06:56:27.930Z,38.40
2022-12-06T06:58:54.845Z,38.75
2022-12-06T07:01:23.949Z,38.92
2022-12-06T07:03:53.317Z,38.62
2022-12-06T07:06:20.083Z,38.90
2022-12-06T07:08:47.077Z,38.84
2022-12-06T07:11:14.382Z,38.53
2022-12-06T07:13:45.769Z,38.54
2022-12-06T07:16:16.955Z,38.66
2022-12-06T07:18:43.956Z,38.45
2022-12-06T07:21:14.227Z,38.98
2022-12-06T07:23:40.883Z,38.77
2022-12-06T07:26:11.685Z,38.85
2022-12-06T07:28:40.734Z,38.83
2022-12-06T07:31:28.050Z,39.07
2022-12-06T07:33:58.354Z,38.68
2022-12-06T07:36:27.886Z,38.77
2022-12-06T07:38:56.060Z,38.58
2022-12-06T07:41:43.149Z,38.60
2022-12-06T07:44:49.704Z,38.79
2022-12-06T07:47:16.288Z,38.34
2022-12-06T07:49:42.925Z,38.78
2022-12-06T07:52:09.525Z,38.39
2022-12-06T07:54:36.184Z,38.46
2022-12-06T07:57:02.867Z,38.00
2022-12-06T07:59:29.575Z,38.09
2022-12-06T08:01:56.371Z,37.92
2022-12-06T08:04:23.008Z,37.98
2022-12-06T08:06:50.505Z,37.82
2022-12-06T08:09:17.262Z,37.82
2022-12-06T08:11:44.447Z,37.97
2022-12-06T08:14:12.411Z,37.83
2022-12-06T08:16:41.134Z,37.89
2022-12-06T08:19:08.524Z,38.03
2022-12-06T08:21:35.167Z,37.80
2022-12-06T08:24:03.966Z,37.79
2022-12-06T08:26:30.643Z,37.56
2022-12-06T08:29:00.712Z,37.74
2022-12-06T08:31:28.670Z,37.87
2022-12-06T08:33:55.324Z,37.67
2022-12-06T08:36:22.943Z,37.63
2022-12-06T08:38:51.074Z,37.80
2022-12-06T08:41:37.070Z,38.00
2022-12-06T08:44:04.238Z,37.92
2022-12-06T08:46:32.080Z,38.06
2022-12-06T08:48:58.910Z,38.04
2022-12-06T08:51:25.509Z,38.04
2022-12-06T08:53:53.413Z,38.01
2022-12-06T08:56:20.338Z,38.16
2022-12-06T08:58:47.826Z,38.30
2022-12-06T09:01:20.954Z,37.19
2022-12-06T09:03:47.975Z,37.88
2022-12-06T09:06:20.000Z,37.99
2022-12-06T09:08:47.215Z,38.37
2022-12-06T09:11:15.440Z,38.37
2022-12-06T09:13:42.811Z,38.39
2022-12-06T09:16:21.871Z,38.28
2022-12-06T09:18:51.443Z,38.12
2022-12-06T09:21:22.173Z,38.45
2022-12-06T09:23:49.966Z,38.11
2022-12-06T09:26:17.101Z,38.22
2022-12-06T09:28:46.720Z,38.32
2022-12-06T09:31:13.921Z,38.39
2022-12-06T09:33:40.807Z,38.57
2022-12-06T09:36:28.686Z,38.53
2022-12-06T09:39:05.988Z,38.21
2022-12-06T09:41:41.501Z,37.93
2022-12-06T09:44:48.573Z,37.72
2022-12-06T09:47:30.855Z,37.88
2022-12-06T09:50:22.378Z,37.00
2022-12-06T09:53:06.135Z,36.57
2022-12-06T09:55:45.858Z,36.26
2022-12-06T09:58:27.763Z,36.02
2022-12-06T10:01:33.680Z,35.93
2022-12-06T10:04:26.119Z,35.97
2022-12-06T10:07:12.165Z,35.63
2022-12-06T10:09:59.336Z,35.60
2022-12-06T10:12:46.353Z,35.66
2022-12-06T10:15:22.744Z,35.01
2022-12-06T10:17:53.953Z,34.85
2022-12-06T10:20:41.852Z,34.88
2022-12-06T10:23:30.409Z,34.93
2022-12-06T10:26:14.146Z,34.32
2022-12-06T10:28:46.936Z,34.42
2022-12-06T10:31:50.153Z,34.48
2022-12-06T10:34:23.199Z,33.90
2022-12-06T10:37:15.856Z,33.93
2022-12-06T10:39:52.058Z,34.13
2022-12-06T10:42:34.705Z,34.04
2022-12-06T10:46:07.179Z,33.88
2022-12-06T10:48:43.661Z,33.37
2022-12-06T10:51:15.504Z,33.56
2022-12-06T10:53:51.228Z,33.28
2022-12-06T10:56:30.348Z,33.00
2022-12-06T10:59:03.777Z,33.14
2022-12-06T11:01:38.375Z,33.47
2022-12-06T11:04:17.191Z,33.42
2022-12-06T11:06:56.939Z,33.22
2022-12-06T11:09:40.057Z,33.44
2022-12-06T11:12:18.907Z,33.24
2022-12-06T11:14:49.632Z,33.12
2022-12-06T11:17:23.750Z,32.72
2022-12-06T11:20:01.372Z,33.07
2022-12-06T11:22:50.811Z,32.88
2022-12-06T11:25:25.532Z,32.63
2022-12-06T11:28:21.421Z,32.63
2022-12-06T11:30:50.428Z,32.71
2022-12-06T11:33:18.724Z,33.00
2022-12-06T11:35:47.704Z,32.43
2022-12-06T11:38:15.985Z,32.09
2022-12-06T11:40:46.230Z,32.11
2022-12-06T11:43:21.988Z,32.45
2022-12-06T11:45:49.426Z,32.58
2022-12-06T11:48:28.474Z,32.06
2022-12-06T11:50:55.625Z,31.90
2022-12-06T11:53:37.420Z,31.71
2022-12-06T11:56:13.456Z,31.68
2022-12-06T11:58:44.889Z,31.66
2022-12-06T12:01:14.160Z,31.59
2022-12-06T12:03:43.054Z,31.92
2022-12-06T12:06:22.755Z,31.94
2022-12-06T12:08:59.076Z,31.73
2022-12-06T12:11:29.534Z,31.75
2022-12-06T12:14:01.889Z,31.71
2022-12-06T12:16:33.713Z,31.77
2022-12-06T12:19:02.911Z,31.74
2022-12-06T12:21:38.544Z,31.61
2022-12-06T12:24:27.775Z,31.85
2022-12-06T12:26:54.431Z,31.61
2022-12-06T12:29:22.205Z,31.95
2022-12-06T12:31:56.975Z,31.48
2022-12-06T12:34:31.365Z,31.70
2022-12-06T12:37:00.998Z,31.52
2022-12-06T12:39:53.534Z,31.18
2022-12-06T12:42:47.400Z,31.28
2022-12-06T12:45:19.680Z,31.31
2022-12-06T12:47:59.608Z,31.50
2022-12-06T12:50:28.194Z,31.62
2022-12-06T12:52:55.653Z,31.25
2022-12-06T12:55:27.832Z,31.38
2022-12-06T12:57:59.385Z,31.47
2022-12-06T13:00:30.317Z,31.62
2022-12-06T13:03:02.164Z,31.57
2022-12-06T13:05:34.344Z,31.33
2022-12-06T13:08:26.994Z,31.15
2022-12-06T13:10:59.048Z,31.38
2022-12-06T13:13:43.988Z,31.19
2022-12-06T13:16:13.662Z,31.45
2022-12-06T13:18:52.916Z,31.79
2022-12-06T13:21:33.784Z,31.33
2022-12-06T13:24:16.188Z,31.13
2022-12-06T13:26:46.253Z,31.32
2022-12-06T13:29:18.852Z,31.48
2022-12-06T13:31:48.142Z,31.64
2022-12-06T13:34:38.272Z,31.44
2022-12-06T13:37:28.858Z,31.80
2022-12-06T13:39:57.299Z,31.98
2022-12-06T13:42:42.382Z,31.96
2022-12-06T13:45:37.617Z,31.50
2022-12-06T13:48:25.092Z,31.36
2022-12-06T13:50:54.648Z,31.61
2022-12-06T13:53:27.489Z,32.18
2022-12-06T13:56:27.914Z,32.00
2022-12-06T13:58:56.593Z,32.19
2022-12-06T14:01:55.087Z,32.01
2022-12-06T14:09:43.103Z,31.97
2022-12-06T14:12:16.734Z,31.67
2022-12-06T14:14:44.036Z,32.18
2022-12-06T14:17:32.209Z,32.46
2022-12-06T14:20:03.632Z,32.08
2022-12-06T14:22:34.223Z,32.07
2022-12-06T14:25:23.852Z,32.01
2022-12-06T14:28:00.835Z,32.57
2022-12-06T14:30:27.629Z,32.40
2022-12-06T14:32:56.758Z,32.25
2022-12-06T14:35:29.307Z,32.63
2022-12-06T14:38:19.834Z,32.14
2022-12-06T14:41:09.237Z,32.36
2022-12-06T14:43:37.400Z,32.81
2022-12-06T14:46:10.637Z,32.25
2022-12-06T14:48:56.357Z,32.30
2022-12-06T14:51:34.762Z,32.75
2022-12-06T14:54:44.440Z,32.49
2022-12-06T14:57:24.725Z,32.05
2022-12-06T15:00:15.830Z,32.75
2022-12-06T15:03:21.407Z,32.41
2022-12-06T15:05:52.140Z,32.28
2022-12-06T15:08:28.338Z,32.23
2022-12-06T15:10:59.712Z,32.42
2022-12-06T15:13:27.280Z,32.49
2022-12-06T15:16:03.095Z,32.40
2022-12-06T15:18:32.969Z,32.35
2022-12-06T15:20:59.932Z,33.01
2022-12-06T15:23:31.251Z,32.87
2022-12-06T15:25:58.012Z,32.75
2022-12-06T15:28:25.420Z,32.79
2022-12-06T15:30:52.205Z,32.45
2022-12-06T15:33:21.114Z,32.43
2022-12-06T15:35:48.084Z,32.92
2022-12-06T15:38:14.668Z,32.85
2022-12-06T15:40:46.485Z,32.96
2022-12-06T15:43:34.112Z,32.54
2022-12-06T15:46:02.527Z,32.95
2022-12-06T15:48:30.677Z,33.16
2022-12-06T15:50:58.083Z,32.63
2022-12-06T15:53:25.551Z,32.97
2022-12-06T15:55:53.140Z,32.85
2022-12-06T15:58:22.962Z,32.72
2022-12-06T16:00:50.221Z,33.20
2022-12-06T16:03:16.983Z,32.81
2022-12-06T16:05:43.913Z,33.07
2022-12-06T16:08:10.520Z,32.84
2022-12-06T16:11:10.133Z,32.88
2022-12-06T16:13:24.201Z,33.11
2022-12-06T16:15:52.310Z,32.83
2022-12-06T16:18:19.731Z,33.04
2022-12-06T16:20:46.731Z,33.38
2022-12-06T16:24:04.540Z,33.07
2022-12-06T16:26:22.308Z,33.05
2022-12-06T16:28:48.943Z,33.15
2022-12-06T16:31:17.229Z,33.02
2022-12-06T16:33:43.997Z,33.37
2022-12-06T16:36:20.978Z,33.08
2022-12-06T16:38:53.710Z,33.29
2022-12-06T16:41:27.093Z,33.18
2022-12-06T16:43:57.223Z,33.49
2022-12-06T16:46:33.492Z,33.46
2022-12-06T16:49:44.283Z,33.60
2022-12-06T16:51:59.681Z,33.22
2022-12-06T16:54:26.357Z,33.16
2022-12-06T16:56:53.682Z,33.62
2022-12-06T16:59:20.256Z,33.90
2022-12-06T17:01:52.443Z,33.90
2022-12-06T17:04:19.205Z,33.87
2022-12-06T17:06:46.839Z,33.64
2022-12-06T17:09:13.896Z,33.94
2022-12-06T17:11:59.439Z,33.73
2022-12-06T17:14:26.991Z,34.12
2022-12-06T17:16:54.270Z,33.56
2022-12-06T17:19:23.289Z,33.85
2022-12-06T17:21:52.381Z,33.73
2022-12-06T17:24:20.371Z,34.20
2022-12-06T17:26:47.368Z,33.82
2022-12-06T17:29:13.966Z,34.13
2022-12-06T17:31:40.589Z,34.15
2022-12-06T17:34:08.279Z,34.08
2022-12-06T17:36:35.501Z,34.03
2022-12-06T17:39:04.434Z,34.23
2022-12-06T17:41:52.097Z,34.29
2022-12-06T17:44:19.538Z,34.21
2022-12-06T17:46:46.285Z,33.86
2022-12-06T17:49:18.419Z,33.91
2022-12-06T17:51:47.085Z,34.25
2022-12-06T17:54:14.204Z,34.27
2022-12-06T17:56:52.051Z,34.19
2022-12-06T17:59:20.876Z,33.87
2022-12-06T18:04:35.603Z,34.10
2022-12-06T18:11:08.854Z,33.85
2022-12-06T18:13:36.708Z,33.86
2022-12-06T18:16:15.765Z,33.76
2022-12-06T18:18:43.744Z,33.82
2022-12-06T18:21:11.457Z,33.59
2022-12-06T18:23:44.590Z,33.83
2022-12-06T18:26:21.096Z,33.63
2022-12-06T18:28:57.153Z,33.88
2022-12-06T18:31:24.895Z,33.97
2022-12-06T18:33:52.002Z,33.39
2022-12-06T18:36:19.660Z,33.70
2022-12-06T18:38:48.178Z,33.81
2022-12-06T18:45:27.890Z,33.60
2022-12-06T18:47:54.497Z,33.72
2022-12-06T18:50:21.150Z,33.32
2022-12-06T18:52:48.899Z,33.17
2022-12-06T18:55:15.805Z,33.55
2022-12-06T18:57:42.584Z,33.49
2022-12-06T19:00:10.014Z,33.17
2022-12-06T19:02:37.850Z,33.23
2022-12-06T19:05:05.018Z,33.44
2022-12-06T19:07:32.033Z,33.50
2022-12-06T19:09:58.831Z,33.42
2022-12-06T19:12:26.043Z,33.43
2022-12-06T19:14:53.530Z,33.15
2022-12-06T19:17:20.211Z,33.41
2022-12-06T19:19:46.892Z,33.38
2022-12-06T19:22:15.684Z,33.35
2022-12-06T19:24:42.362Z,33.14
2022-12-06T19:27:09.425Z,33.14
2022-12-06T19:29:36.043Z,33.26
2022-12-06T19:32:02.973Z,33.49
2022-12-06T19:34:30.310Z,33.13
2022-12-06T19:36:57.716Z,33.29
2022-12-06T19:39:26.101Z,33.42
2022-12-06T19:42:11.155Z,33.01
2022-12-06T19:44:37.822Z,33.05
2022-12-06T19:47:04.921Z,33.01
2022-12-06T19:49:32.421Z,33.19
2022-12-06T19:51:59.056Z,33.26
2022-12-06T19:54:28.634Z,33.17
2022-12-06T19:56:57.191Z,33.23
2022-12-06T19:59:26.647Z,33.22
2022-12-06T20:01:54.068Z,33.20
2022-12-06T20:04:23.263Z,33.09
2022-12-06T20:06:51.490Z,32.83
2022-12-06T20:09:21.417Z,33.23
2022-12-06T20:12:03.862Z,33.30
2022-12-06T20:14:43.188Z,33.10
2022-12-06T20:17:15.234Z,33.18
2022-12-06T20:19:43.258Z,33.24
2022-12-06T20:22:12.123Z,33.05
2022-12-06T20:24:40.008Z,33.31
2022-12-06T20:27:06.705Z,33.68
2022-12-06T20:29:33.354Z,34.36
2022-12-06T20:32:00.430Z,34.06
2022-12-06T20:34:29.584Z,34.46
2022-12-06T20:36:57.124Z,34.84
2022-12-06T20:39:26.689Z,34.76
2022-12-06T20:41:53.961Z,34.73
2022-12-06T20:44:21.309Z,33.47
2022-12-06T20:46:49.835Z,33.34
2022-12-06T20:49:18.326Z,33.76
2022-12-06T20:51:51.154Z,34.34
2022-12-06T20:54:19.625Z,34.68
2022-12-06T20:56:47.083Z,34.51
2022-12-06T20:59:13.830Z,33.54
2022-12-06T21:01:41.639Z,33.41
2022-12-06T21:04:10.104Z,33.80
2022-12-06T21:06:37.662Z,33.58
2022-12-06T21:09:04.704Z,33.78
2022-12-06T21:11:31.652Z,33.81
2022-12-06T21:13:58.378Z,33.64
2022-12-06T21:16:27.853Z,33.74
2022-12-06T21:19:00.846Z,33.76
2022-12-06T21:21:34.245Z,33.62
2022-12-06T21:24:01.590Z,33.75
2022-12-06T21:26:29.330Z,34.11
2022-12-06T21:28:56.697Z,33.92
2022-12-06T21:31:28.530Z,34.09
2022-12-06T21:33:56.045Z,33.99
2022-12-06T21:36:23.092Z,34.09
2022-12-06T21:38:49.917Z,34.57
2022-12-06T21:41:17.047Z,34.23
2022-12-06T21:43:44.591Z,34.56
2022-12-06T21:46:14.090Z,34.50
2022-12-06T21:48:41.211Z,34.26
2022-12-06T21:51:10.161Z,34.47
2022-12-06T21:53:38.099Z,34.54
2022-12-06T21:56:16.086Z,34.28
2022-12-06T21:58:42.730Z,34.31
2022-12-06T22:01:12.429Z,34.44
2022-12-06T22:03:40.130Z,34.28
2022-12-06T22:06:09.305Z,34.46
2022-12-06T22:08:36.025Z,34.08
2022-12-06T22:11:07.372Z,34.44
2022-12-06T22:13:34.642Z,34.36
2022-12-06T22:16:02.942Z,34.30
2022-12-06T22:18:29.972Z,34.46
2022-12-06T22:21:02.294Z,34.25
2022-12-06T22:23:30.218Z,34.34
2022-12-06T22:25:57.418Z,34.58
2022-12-06T22:28:24.414Z,34.49
2022-12-06T22:30:51.739Z,34.63
2022-12-06T22:33:20.244Z,34.35
2022-12-06T22:35:46.806Z,34.65
2022-12-06T22:38:13.770Z,34.54
2022-12-06T22:40:40.417Z,34.51
2022-12-06T22:43:08.141Z,34.43
2022-12-06T22:45:34.768Z,34.51
2022-12-06T22:48:01.392Z,34.34
2022-12-06T22:50:27.929Z,34.44
2022-12-06T22:52:55.750Z,34.10
2022-12-06T22:55:22.637Z,34.09
2022-12-06T22:57:49.402Z,34.11
2022-12-06T23:00:17.030Z,33.92
2022-12-06T23:02:49.570Z,33.83
2022-12-06T23:05:16.193Z,33.71
2022-12-06T23:07:43.821Z,33.57
2022-12-06T23:10:12.565Z,33.58
2022-12-06T23:12:39.970Z,33.09
2022-12-06T23:15:07.269Z,33.00
2022-12-06T23:17:34.553Z,33.15
2022-12-06T23:20:01.536Z,33.17
2022-12-06T23:22:31.837Z,32.90
2022-12-06T23:24:58.454Z,32.51
2022-12-06T23:27:24.990Z,32.79
2022-12-06T23:29:51.577Z,32.22
2022-12-06T23:32:19.381Z,32.53
2022-12-06T23:34:46.036Z,32.64
2022-12-06T23:37:12.678Z,32.52
2022-12-06T23:39:39.295Z,31.86
2022-12-06T23:42:05.892Z,32.27
2022-12-06T23:44:32.500Z,31.76
2022-12-06T23:46:59.580Z,31.75
2022-12-06T23:49:26.142Z,32.15
2022-12-06T23:51:52.813Z,32.04
2022-12-06T23:54:19.626Z,31.71
2022-12-06T23:56:46.899Z,31.80
2022-12-06T23:59:14.730Z,31.63
